createdAt,value
2023-01-08T00:01:15.641Z,5.88
2023-01-08T00:03:45.185Z,4.57
2023-01-08T00:06:15.275Z,5.20
2023-01-08T00:08:42.568Z,4.82
2023-01-08T00:11:09.705Z,4.80
2023-01-08T00:13:36.747Z,5.70
2023-01-08T00:16:13.093Z,5.30
2023-01-08T00:18:40.083Z,4.82
2023-01-08T00:21:07.337Z,4.50
2023-01-08T00:23:35.261Z,4.97
2023-01-08T00:26:07.482Z,4.88
2023-01-08T00:28:35.912Z,6.15
2023-01-08T00:31:07.790Z,5.32
2023-01-08T00:33:35.970Z,5.72
2023-01-08T00:36:11.836Z,5.28
2023-01-08T00:38:38.677Z,5.38
2023-01-08T00:41:05.702Z,5.13
2023-01-08T00:43:32.990Z,5.20
2023-01-08T00:45:59.909Z,5.97
2023-01-08T00:48:26.722Z,5.75
2023-01-08T00:50:54.605Z,5.60
2023-01-08T00:53:22.524Z,5.55
2023-01-08T00:55:49.968Z,5.50
2023-01-08T00:58:17.038Z,5.05
2023-01-08T01:00:43.717Z,4.97
2023-01-08T01:03:10.309Z,5.20
2023-01-08T01:05:36.965Z,5.70
2023-01-08T01:08:06.923Z,4.50
2023-01-08T01:10:33.510Z,5.10
2023-01-08T01:13:00.178Z,4.80
2023-01-08T01:15:26.843Z,5.10
2023-01-08T01:17:53.439Z,4.53
2023-01-08T01:20:20.167Z,4.63
2023-01-08T01:22:46.826Z,3.63
2023-01-08T01:25:13.494Z,4.00
2023-01-08T01:27:40.255Z,4.20
2023-01-08T01:30:07.850Z,3.88
2023-01-08T01:32:34.591Z,4.35
2023-01-08T01:35:02.127Z,3.83
2023-01-08T01:37:29.073Z,3.58
2023-01-08T01:39:56.592Z,3.88
2023-01-08T01:42:41.608Z,4.50
2023-01-08T01:45:21.505Z,4.35
2023-01-08T01:47:55.609Z,4.05
2023-01-08T01:50:37.885Z,4.72
2023-01-08T01:53:17.655Z,4.85
2023-01-08T01:55:44.548Z,4.70
2023-01-08T01:58:15.749Z,5.10
2023-01-08T02:00:44.991Z,4.43
2023-01-08T02:03:13.968Z,4.57
2023-01-08T02:06:00.527Z,4.22
2023-01-08T02:08:44.208Z,4.40
2023-01-08T02:11:15.541Z,4.50
2023-01-08T02:13:50.649Z,4.97
2023-01-08T02:16:34.710Z,5.05
2023-01-08T02:19:13.997Z,4.60
2023-01-08T02:21:49.611Z,5.07
2023-01-08T02:24:23.913Z,4.97
2023-01-08T02:26:55.202Z,4.60
2023-01-08T02:29:25.422Z,4.38
2023-01-08T02:31:52.521Z,4.65
2023-01-08T02:34:19.162Z,4.25
2023-01-08T02:36:48.345Z,4.18
2023-01-08T02:39:46.790Z,4.43
2023-01-08T02:42:35.349Z,4.40
2023-01-08T02:45:07.050Z,5.03
2023-01-08T02:47:44.925Z,5.15
2023-01-08T02:50:37.594Z,5.55
2023-01-08T02:53:18.949Z,5.32
2023-01-08T02:55:52.052Z,5.80
2023-01-08T02:58:19.941Z,6.40
2023-01-08T03:00:47.976Z,5.80
2023-01-08T03:03:18.799Z,5.35
2023-01-08T03:05:49.996Z,5.80
2023-01-08T03:08:18.507Z,5.50
2023-01-08T03:11:17.545Z,5.90
2023-01-08T03:14:07.355Z,5.75
2023-01-08T03:16:41.238Z,4.85
2023-01-08T03:19:21.375Z,6.18
2023-01-08T03:21:50.514Z,5.47
2023-01-08T03:24:22.327Z,5.57
2023-01-08T03:26:52.004Z,5.88
2023-01-08T03:29:22.106Z,6.20
2023-01-08T03:31:50.600Z,6.20
2023-01-08T03:34:20.879Z,6.32
2023-01-08T03:36:51.518Z,5.82
2023-01-08T03:41:49.306Z,5.57
2023-01-08T03:44:16.387Z,6.30
2023-01-08T03:46:50.928Z,6.25
2023-01-08T03:49:18.565Z,6.70
2023-01-08T03:51:47.048Z,6.60
2023-01-08T03:54:20.462Z,6.13
2023-01-08T03:56:47.185Z,6.85
2023-01-08T03:59:15.175Z,6.05
2023-01-08T04:01:42.101Z,7.22
2023-01-08T04:04:09.073Z,6.43
2023-01-08T04:06:35.878Z,6.45
2023-01-08T04:09:03.044Z,6.90
2023-01-08T04:11:30.023Z,6.88
2023-01-08T04:13:56.739Z,7.15
2023-01-08T04:16:23.599Z,7.40
2023-01-08T04:18:50.245Z,6.38
2023-01-08T04:21:17.108Z,6.93
2023-01-08T04:23:43.766Z,6.25
2023-01-08T04:26:10.457Z,6.53
2023-01-08T04:28:37.206Z,6.93
2023-01-08T04:31:08.039Z,6.35
2023-01-08T04:33:35.429Z,6.07
2023-01-08T04:36:03.856Z,6.28
2023-01-08T04:38:30.535Z,5.20
2023-01-08T04:40:58.943Z,5.20
2023-01-08T04:43:25.666Z,5.53
2023-01-08T04:45:52.603Z,4.88
2023-01-08T04:48:19.309Z,5.28
2023-01-08T04:50:45.984Z,5.35
2023-01-08T04:53:12.620Z,5.40
2023-01-08T04:55:39.896Z,5.40
2023-01-08T04:58:06.601Z,5.07
2023-01-08T05:00:33.242Z,5.50
2023-01-08T05:03:00.076Z,6.03
2023-01-08T05:05:26.778Z,6.22
2023-01-08T05:07:53.510Z,6.65
2023-01-08T05:10:20.213Z,6.93
2023-01-08T05:12:46.772Z,6.13
2023-01-08T05:15:13.440Z,5.80
2023-01-08T05:17:40.050Z,6.00
2023-01-08T05:20:08.375Z,5.97
2023-01-08T05:22:35.366Z,6.32
2023-01-08T05:25:02.045Z,6.13
2023-01-08T05:27:29.147Z,6.28
2023-01-08T05:29:55.768Z,6.75
2023-01-08T05:32:22.482Z,6.35
2023-01-08T05:34:49.101Z,6.07
2023-01-08T05:37:15.745Z,6.88
2023-01-08T05:39:42.311Z,6.78
2023-01-08T05:42:08.910Z,6.28
2023-01-08T05:44:35.540Z,6.60
2023-01-08T05:47:03.619Z,6.88
2023-01-08T05:49:30.169Z,6.85
2023-01-08T05:51:56.817Z,6.95
2023-01-08T05:54:23.406Z,6.75
2023-01-08T05:56:50.101Z,6.82
2023-01-08T05:59:16.778Z,6.68
2023-01-08T06:01:43.543Z,7.57
2023-01-08T06:04:10.254Z,7.15
2023-01-08T06:06:36.896Z,7.82
2023-01-08T06:09:03.784Z,7.53
2023-01-08T06:11:30.490Z,7.10
2023-01-08T06:13:57.070Z,7.40
2023-01-08T06:16:23.790Z,7.93
2023-01-08T06:18:50.426Z,7.40
2023-01-08T06:21:17.074Z,8.00
2023-01-08T06:23:43.935Z,7.30
2023-01-08T06:26:10.653Z,7.70
2023-01-08T06:28:37.406Z,7.32
2023-01-08T06:31:04.537Z,7.38
2023-01-08T06:33:32.092Z,6.85
2023-01-08T06:36:04.595Z,6.47
2023-01-08T06:38:32.807Z,6.90
2023-01-08T06:40:59.543Z,7.38
2023-01-08T06:43:26.113Z,6.70
2023-01-08T06:45:54.711Z,7.35
2023-01-08T06:48:21.335Z,7.18
2023-01-08T06:50:47.971Z,7.65
2023-01-08T06:53:14.611Z,7.10
2023-01-08T06:55:41.246Z,7.07
2023-01-08T06:58:07.972Z,7.30
2023-01-08T07:00:34.617Z,7.55
2023-01-08T07:03:02.958Z,8.10
2023-01-08T07:05:29.777Z,7.85
2023-01-08T07:07:56.543Z,7.38
2023-01-08T07:10:23.336Z,7.80
2023-01-08T07:12:50.183Z,7.85
2023-01-08T07:15:16.974Z,7.15
2023-01-08T07:17:43.615Z,7.00
2023-01-08T07:20:11.095Z,7.18
2023-01-08T07:22:37.716Z,7.28
2023-01-08T07:25:05.291Z,7.07
2023-01-08T07:27:31.965Z,6.20
2023-01-08T07:29:58.629Z,6.43
2023-01-08T07:32:25.305Z,7.40
2023-01-08T07:34:54.224Z,7.05
2023-01-08T07:37:20.904Z,7.03
2023-01-08T07:39:47.555Z,6.70
2023-01-08T07:42:14.461Z,6.28
2023-01-08T07:44:41.066Z,6.30
2023-01-08T07:47:07.699Z,6.35
2023-01-08T07:49:34.326Z,6.68
2023-01-08T07:52:00.908Z,5.88
2023-01-08T07:54:27.691Z,6.50
2023-01-08T07:56:54.918Z,6.45
2023-01-08T07:59:21.591Z,6.78
2023-01-08T08:01:48.459Z,6.20
2023-01-08T08:04:16.264Z,6.40
2023-01-08T08:06:42.929Z,5.97
2023-01-08T08:09:09.520Z,7.38
2023-01-08T08:11:38.418Z,7.20
2023-01-08T08:14:05.131Z,6.05
2023-01-08T08:16:31.785Z,6.38
2023-01-08T08:18:59.693Z,6.20
2023-01-08T08:21:26.690Z,6.15
2023-01-08T08:23:53.316Z,5.97
2023-01-08T08:26:19.955Z,6.90
2023-01-08T08:28:46.532Z,6.20
2023-01-08T08:31:13.405Z,5.15
2023-01-08T08:33:40.076Z,6.35
2023-01-08T08:36:07.332Z,5.80
2023-01-08T08:38:34.035Z,5.68
2023-01-08T08:41:00.708Z,5.35
2023-01-08T08:43:27.348Z,5.40
2023-01-08T08:45:56.176Z,4.70
2023-01-08T08:48:23.557Z,5.65
2023-01-08T08:50:50.241Z,5.72
2023-01-08T08:53:16.853Z,5.93
2023-01-08T08:55:43.581Z,5.10
2023-01-08T08:58:12.538Z,5.15
2023-01-08T09:00:40.677Z,5.18
2023-01-08T09:03:07.445Z,5.15
2023-01-08T09:05:37.039Z,4.82
2023-01-08T09:08:03.717Z,5.13
2023-01-08T09:10:30.426Z,5.10
2023-01-08T09:12:57.102Z,3.95
2023-01-08T09:15:23.721Z,3.78
2023-01-08T09:17:57.827Z,5.13
2023-01-08T09:20:26.343Z,4.93
2023-01-08T09:22:53.094Z,4.97
2023-01-08T09:25:20.202Z,4.90
2023-01-08T09:27:46.808Z,5.05
2023-01-08T09:30:13.571Z,4.97
2023-01-08T09:32:40.288Z,4.80
2023-01-08T09:35:07.130Z,5.00
2023-01-08T09:37:33.802Z,4.90
2023-01-08T09:40:02.617Z,4.60
2023-01-08T09:42:31.201Z,4.47
2023-01-08T09:45:00.849Z,4.70
2023-01-08T09:47:32.618Z,5.20
2023-01-08T09:50:03.032Z,4.63
2023-01-08T09:52:31.530Z,4.60
2023-01-08T09:54:58.756Z,5.15
2023-01-08T09:57:25.892Z,4.93
2023-01-08T09:59:52.615Z,5.18
2023-01-08T10:02:25.155Z,5.28
2023-01-08T10:04:55.677Z,5.22
2023-01-08T10:07:25.371Z,5.15
2023-01-08T10:09:53.272Z,4.63
2023-01-08T10:12:30.632Z,4.97
2023-01-08T10:15:11.453Z,4.78
2023-01-08T10:17:40.641Z,5.10
2023-01-08T10:20:16.873Z,5.03
2023-01-08T10:22:44.294Z,4.97
2023-01-08T10:25:15.273Z,4.82
2023-01-08T10:27:49.942Z,4.90
2023-01-08T10:30:22.697Z,4.90
2023-01-08T10:32:55.072Z,5.22
2023-01-08T10:35:29.308Z,4.90
2023-01-08T10:37:56.562Z,4.30
2023-01-08T10:40:31.395Z,5.07
2023-01-08T10:43:25.517Z,4.35
2023-01-08T10:46:02.042Z,4.30
2023-01-08T10:48:51.768Z,4.75
2023-01-08T10:51:21.544Z,4.60
2023-01-08T10:53:48.813Z,4.47
2023-01-08T10:56:40.412Z,4.85
2023-01-08T10:59:18.663Z,4.55
2023-01-08T11:01:48.806Z,4.70
2023-01-08T11:04:32.776Z,4.05
2023-01-08T11:07:05.011Z,4.03
2023-01-08T11:09:34.726Z,3.60
2023-01-08T11:12:01.945Z,3.63
2023-01-08T11:14:36.608Z,3.88
2023-01-08T11:17:11.146Z,3.40
2023-01-08T11:19:39.845Z,3.13
2023-01-08T11:22:18.719Z,3.53
2023-01-08T11:24:46.726Z,3.75
2023-01-08T11:27:33.977Z,3.58
2023-01-08T11:30:12.995Z,3.53
2023-01-08T11:32:56.017Z,4.40
2023-01-08T11:35:36.121Z,3.70
2023-01-08T11:38:03.380Z,3.80
2023-01-08T11:40:58.061Z,3.97
2023-01-08T11:43:30.721Z,3.63
2023-01-08T11:46:00.480Z,3.97
2023-01-08T11:48:49.061Z,4.10
2023-01-08T11:51:46.759Z,4.18
2023-01-08T11:54:23.321Z,4.20
2023-01-08T11:57:08.767Z,4.05
2023-01-08T11:59:41.372Z,5.10
2023-01-08T12:02:22.767Z,4.53
2023-01-08T12:05:08.224Z,4.78
2023-01-08T12:07:53.388Z,4.13
2023-01-08T12:10:33.972Z,5.20
2023-01-08T12:13:27.551Z,4.80
2023-01-08T12:16:02.832Z,4.43
2023-01-08T12:18:58.873Z,4.22
2023-01-08T12:21:33.479Z,5.03
2023-01-08T12:24:00.128Z,4.60
2023-01-08T12:26:53.692Z,5.07
2023-01-08T12:29:29.194Z,4.60
2023-01-08T12:32:22.095Z,4.90
2023-01-08T12:35:13.528Z,4.45
2023-01-08T12:38:01.898Z,4.32
2023-01-08T12:40:45.149Z,5.00
2023-01-08T12:43:24.315Z,4.90
2023-01-08T12:45:54.887Z,4.32
2023-01-08T12:48:26.143Z,5.10
2023-01-08T12:51:18.069Z,4.75
2023-01-08T12:54:06.347Z,4.78
2023-01-08T12:57:13.769Z,4.93
2023-01-08T12:59:47.221Z,4.53
2023-01-08T13:02:52.877Z,4.32
2023-01-08T13:05:19.530Z,3.90
2023-01-08T13:07:49.259Z,3.58
2023-01-08T13:10:36.626Z,3.60
2023-01-08T13:13:05.928Z,4.05
2023-01-08T13:15:33.586Z,4.40
2023-01-08T13:18:15.330Z,4.28
2023-01-08T13:20:42.209Z,4.88
2023-01-08T13:23:24.400Z,4.55
2023-01-08T13:25:53.058Z,3.75
2023-01-08T13:28:32.523Z,4.25
2023-01-08T13:31:21.947Z,4.32
2023-01-08T13:33:52.644Z,4.43
2023-01-08T13:36:21.377Z,4.25
2023-01-08T13:39:21.776Z,4.53
2023-01-08T13:42:00.354Z,5.38
2023-01-08T13:44:36.186Z,4.82
2023-01-08T13:47:06.854Z,4.72
2023-01-08T13:52:32.737Z,5.03
2023-01-08T13:55:03.304Z,5.33
2023-01-08T13:57:38.358Z,5.40
2023-01-08T14:00:08.125Z,4.80
2023-01-08T14:05:34.251Z,5.00
2023-01-08T14:08:01.308Z,4.90
2023-01-08T14:10:29.518Z,4.95
2023-01-08T14:13:07.578Z,5.60
2023-01-08T14:15:35.561Z,5.72
2023-01-08T14:18:04.182Z,6.28
2023-01-08T14:20:37.212Z,6.50
2023-01-08T14:23:12.450Z,6.03
2023-01-08T14:25:41.328Z,6.10
2023-01-08T14:28:17.563Z,6.38
2023-01-08T14:31:02.374Z,6.40
2023-01-08T14:33:37.249Z,6.55
2023-01-08T14:36:06.934Z,6.80
2023-01-08T14:38:33.686Z,6.07
2023-01-08T14:41:08.253Z,6.35
2023-01-08T14:43:46.592Z,6.70
2023-01-08T14:46:22.461Z,6.70
2023-01-08T14:48:50.362Z,6.75
2023-01-08T14:51:25.227Z,7.68
2023-01-08T14:54:10.090Z,6.55
2023-01-08T14:56:37.293Z,7.07
2023-01-08T14:59:09.905Z,6.75
2023-01-08T15:01:36.972Z,6.70
2023-01-08T15:04:07.030Z,6.38
2023-01-08T15:06:34.914Z,7.15
2023-01-08T15:09:01.753Z,7.03
2023-01-08T15:11:31.887Z,6.82
2023-01-08T15:13:58.992Z,6.90
2023-01-08T15:16:25.634Z,7.28
2023-01-08T15:18:57.332Z,7.32
2023-01-08T15:21:24.128Z,6.78
2023-01-08T15:23:54.749Z,6.97
2023-01-08T15:28:51.096Z,6.22
2023-01-08T15:31:32.662Z,6.57
2023-01-08T15:34:00.542Z,6.35
2023-01-08T15:36:27.917Z,7.13
2023-01-08T15:38:54.508Z,6.70
2023-01-08T15:41:41.728Z,6.70
2023-01-08T15:44:10.368Z,7.10
2023-01-08T15:46:36.984Z,7.10
2023-01-08T15:49:04.076Z,5.20
2023-01-08T15:51:34.123Z,7.43
2023-01-08T15:54:01.949Z,6.60
2023-01-08T15:56:28.747Z,7.22
2023-01-08T15:58:55.398Z,7.32
2023-01-08T16:01:22.347Z,8.05
2023-01-08T16:03:49.646Z,7.80
2023-01-08T16:06:16.481Z,7.68
2023-01-08T16:08:46.303Z,7.28
2023-01-08T16:11:22.010Z,7.38
2023-01-08T16:13:48.678Z,7.40
2023-01-08T16:16:16.784Z,7.18
2023-01-08T16:18:43.679Z,7.43
2023-01-08T16:21:11.120Z,7.82
2023-01-08T16:23:38.829Z,6.85
2023-01-08T16:26:14.520Z,7.13
2023-01-08T16:28:41.367Z,6.00
2023-01-08T16:31:08.433Z,6.28
2023-01-08T16:33:35.068Z,6.00
2023-01-08T16:36:07.729Z,6.25
2023-01-08T16:38:35.274Z,7.03
2023-01-08T16:41:02.611Z,6.55
2023-01-08T16:43:30.731Z,6.53
2023-01-08T16:46:03.137Z,5.85
2023-01-08T16:48:30.711Z,6.60
2023-01-08T16:51:05.406Z,6.20
2023-01-08T16:53:32.792Z,6.53
2023-01-08T16:56:00.037Z,6.57
2023-01-08T16:58:29.406Z,6.20
2023-01-08T17:00:59.042Z,6.35
2023-01-08T17:03:25.761Z,5.88
2023-01-08T17:05:52.849Z,5.97
2023-01-08T17:08:20.590Z,6.10
2023-01-08T17:10:47.281Z,6.40
2023-01-08T17:13:14.374Z,6.68
2023-01-08T17:15:41.016Z,6.03
2023-01-08T17:18:07.656Z,6.63
2023-01-08T17:20:34.301Z,6.68
2023-01-08T17:23:01.691Z,6.78
2023-01-08T17:25:28.327Z,6.57
2023-01-08T17:27:54.995Z,7.70
2023-01-08T17:30:21.753Z,6.38
2023-01-08T17:32:48.424Z,6.07
2023-01-08T17:35:15.202Z,6.97
2023-01-08T17:37:41.806Z,7.47
2023-01-08T17:40:09.256Z,7.40
2023-01-08T17:42:35.980Z,7.30
2023-01-08T17:45:05.527Z,6.97
2023-01-08T17:47:32.306Z,6.78
2023-01-08T17:49:59.113Z,6.55
2023-01-08T17:52:26.083Z,6.85
2023-01-08T17:54:52.999Z,7.22
2023-01-08T17:57:21.039Z,7.20
2023-01-08T17:59:48.560Z,6.90
2023-01-08T18:02:16.978Z,6.78
2023-01-08T18:04:45.593Z,7.60
2023-01-08T18:07:12.811Z,7.00
2023-01-08T18:09:39.503Z,6.90
2023-01-08T18:12:06.777Z,7.45
2023-01-08T18:14:36.104Z,7.15
2023-01-08T18:17:02.948Z,7.60
2023-01-08T18:19:29.615Z,8.07
2023-01-08T18:21:56.321Z,7.97
2023-01-08T18:24:22.939Z,8.32
2023-01-08T18:26:50.428Z,8.70
2023-01-08T18:29:17.081Z,8.38
2023-01-08T18:31:46.047Z,8.63
2023-01-08T18:34:15.074Z,8.30
2023-01-08T18:36:42.375Z,8.85
2023-01-08T18:39:09.014Z,9.13
2023-01-08T18:41:54.533Z,10.18
2023-01-08T18:44:21.472Z,8.45
2023-01-08T18:46:48.484Z,9.00
2023-01-08T18:49:15.786Z,9.10
2023-01-08T18:51:42.891Z,8.15
2023-01-08T18:54:11.241Z,8.00
2023-01-08T18:56:38.083Z,9.25
2023-01-08T18:59:06.029Z,8.45
2023-01-08T19:01:35.667Z,9.18
2023-01-08T19:04:03.064Z,8.93
2023-01-08T19:06:29.769Z,10.02
2023-01-08T19:08:58.667Z,9.65
2023-01-08T19:11:25.923Z,8.35
2023-01-08T19:13:58.488Z,9.60
2023-01-08T19:16:26.619Z,8.90
2023-01-08T19:18:53.884Z,8.93
2023-01-08T19:21:20.895Z,8.43
2023-01-08T19:23:48.141Z,8.38
2023-01-08T19:26:14.879Z,8.15
2023-01-08T19:28:43.762Z,8.82
2023-01-08T19:31:16.168Z,7.35
2023-01-08T19:33:44.542Z,8.15
2023-01-08T19:36:12.792Z,8.10
2023-01-08T19:38:40.454Z,9.48
2023-01-08T19:41:30.852Z,8.15
2023-01-08T19:43:59.787Z,8.35
2023-01-08T19:46:27.282Z,8.45
2023-01-08T19:48:58.037Z,8.95
2023-01-08T19:51:25.841Z,6.38
2023-01-08T19:53:53.383Z,8.27
2023-01-08T19:56:19.945Z,8.63
2023-01-08T19:58:46.672Z,8.43
2023-01-08T20:01:19.900Z,7.65
2023-01-08T20:03:47.589Z,8.88
2023-01-08T20:06:19.732Z,8.32
2023-01-08T20:08:51.094Z,8.65
2023-01-08T20:11:18.200Z,8.65
2023-01-08T20:13:44.959Z,8.32
2023-01-08T20:16:14.459Z,8.88
2023-01-08T20:18:41.643Z,7.82
2023-01-08T20:21:11.309Z,8.25
2023-01-08T20:23:38.859Z,8.38
2023-01-08T20:26:09.083Z,8.82
2023-01-08T20:28:37.693Z,9.02
2023-01-08T20:31:17.770Z,8.27
2023-01-08T20:33:44.887Z,7.97
2023-01-08T20:36:23.903Z,8.15
2023-01-08T20:38:55.919Z,8.02
2023-01-08T20:41:23.093Z,8.63
2023-01-08T20:43:49.729Z,8.43
2023-01-08T20:46:16.725Z,8.30
2023-01-08T20:48:48.368Z,9.05
2023-01-08T20:51:16.173Z,8.68
2023-01-08T20:53:43.051Z,9.00
2023-01-08T20:56:13.433Z,9.43
2023-01-08T20:58:43.004Z,8.57
2023-01-08T21:01:10.990Z,8.90
2023-01-08T21:03:38.742Z,8.50
2023-01-08T21:06:07.057Z,8.88
2023-01-08T21:08:34.463Z,8.20
2023-01-08T21:11:03.343Z,7.85
2023-01-08T21:13:30.414Z,9.10
2023-01-08T21:16:00.706Z,8.48
2023-01-08T21:18:28.265Z,8.85
2023-01-08T21:21:01.639Z,8.02
2023-01-08T21:23:29.445Z,9.25
2023-01-08T21:26:00.571Z,9.10
2023-01-08T21:28:29.174Z,8.40
2023-01-08T21:30:55.821Z,7.85
2023-01-08T21:33:22.725Z,8.45
2023-01-08T21:35:49.409Z,9.25
2023-01-08T21:38:16.044Z,8.93
2023-01-08T21:40:42.675Z,8.35
2023-01-08T21:43:30.949Z,8.30
2023-01-08T21:46:02.451Z,7.13
2023-01-08T21:48:29.689Z,7.85
2023-01-08T21:50:56.330Z,6.78
2023-01-08T21:53:33.176Z,7.38
2023-01-08T21:56:03.310Z,7.47
2023-01-08T21:58:31.544Z,7.35
2023-01-08T22:00:58.426Z,7.53
2023-01-08T22:03:25.157Z,8.07
2023-01-08T22:06:04.217Z,7.70
2023-01-08T22:08:31.164Z,7.55
2023-01-08T22:10:58.866Z,8.68
2023-01-08T22:13:26.726Z,8.10
2023-01-08T22:16:04.944Z,8.32
2023-01-08T22:18:32.264Z,8.43
2023-01-08T22:21:03.571Z,8.55
2023-01-08T22:23:30.696Z,7.90
2023-01-08T22:25:58.139Z,8.15
2023-01-08T22:28:25.973Z,8.13
2023-01-08T22:30:52.690Z,8.30
2023-01-08T22:33:19.345Z,8.85
2023-01-08T22:35:46.478Z,8.50
2023-01-08T22:38:13.079Z,7.72
2023-01-08T22:40:39.756Z,8.32
2023-01-08T22:43:06.494Z,8.57
2023-01-08T22:45:33.641Z,8.02
2023-01-08T22:48:00.538Z,8.55
2023-01-08T22:50:27.155Z,8.32
2023-01-08T22:52:54.321Z,8.68
2023-01-08T22:55:21.154Z,8.10
2023-01-08T22:57:47.884Z,7.57
2023-01-08T23:00:15.014Z,8.23
2023-01-08T23:02:41.700Z,8.18
2023-01-08T23:05:08.541Z,8.07
2023-01-08T23:07:35.240Z,8.23
2023-01-08T23:10:01.843Z,8.30
2023-01-08T23:12:28.543Z,8.32
2023-01-08T23:14:55.121Z,9.10
2023-01-08T23:17:22.986Z,8.30
2023-01-08T23:19:49.640Z,8.27
2023-01-08T23:22:16.279Z,8.95
2023-01-08T23:24:42.920Z,8.75
2023-01-08T23:27:09.570Z,8.65
2023-01-08T23:29:36.297Z,8.07
2023-01-08T23:32:03.080Z,7.95
2023-01-08T23:34:29.738Z,8.63
2023-01-08T23:36:56.440Z,7.97
2023-01-08T23:39:26.563Z,8.48
2023-01-08T23:41:53.255Z,8.40
2023-01-08T23:44:19.865Z,7.65
2023-01-08T23:46:46.480Z,8.05
2023-01-08T23:49:13.140Z,8.98
2023-01-08T23:51:42.202Z,8.27
2023-01-08T23:54:10.525Z,7.82
2023-01-08T23:56:37.436Z,8.07
2023-01-08T23:59:04.628Z,7.68
